Time;durP1;ratioP1;P1;durP2;ratioP2;P2;SDS_P1;SDS_P2;PMS_P1;PMS_P2;Temp;Humidity;BMP_temperature;BMP_pressure;BME280_temperature;BME280_humidity;BME280_pressure;Samples;Min_cycle;Max_cycle;Signal;HPM_P1;HPM_P2
2021/09/07 00:01:44;;;;;;;1.87;1.20;;;28.00;44.90;;;;;;5131430;27;20505;-43
2021/09/07 00:04:17;;;;;;;1.63;1.40;;;27.90;45.40;;;;;;5143773;27;20540;-43
2021/09/07 00:06:48;;;;;;;2.20;2.00;;;27.90;45.20;;;;;;5143405;27;20469;-42
2021/09/07 00:09:19;;;;;;;1.57;1.40;;;27.90;46.70;;;;;;5143185;27;20504;-43
2021/09/07 00:11:50;;;;;;;1.83;1.70;;;27.80;46.10;;;;;;5143712;27;20449;-42
2021/09/07 00:14:21;;;;;;;1.40;1.30;;;27.80;47.20;;;;;;5143285;27;20471;-42
2021/09/07 00:16:52;;;;;;;1.83;1.50;;;27.70;46.00;;;;;;5144012;28;20498;-42
2021/09/07 00:19:25;;;;;;;1.50;1.40;;;27.50;46.60;;;;;;5143766;28;20447;-43
2021/09/07 00:21:56;;;;;;;2.60;2.33;;;27.50;48.10;;;;;;5144433;28;20463;-42
2021/09/07 00:24:27;;;;;;;2.00;1.80;;;27.40;49.10;;;;;;5142932;27;20468;-42
2021/09/07 00:26:58;;;;;;;2.13;1.80;;;27.20;49.30;;;;;;5143920;27;20487;-42
2021/09/07 00:29:29;;;;;;;1.60;1.50;;;27.20;47.20;;;;;;5143318;27;20885;-42
2021/09/07 00:32:00;;;;;;;6.20;5.20;;;27.20;46.80;;;;;;5147877;27;20524;-43
2021/09/07 00:34:34;;;;;;;9.80;8.07;;;27.10;48.90;;;;;;5147564;27;20448;-42
2021/09/07 00:37:06;;;;;;;9.90;7.27;;;27.00;48.10;;;;;;5148603;27;20430;-41
2021/09/07 00:39:37;;;;;;;9.47;7.57;;;26.90;48.80;;;;;;5147436;27;20442;-41
2021/09/07 00:42:08;;;;;;;4.40;3.30;;;26.90;49.00;;;;;;5148199;27;20461;-42
2021/09/07 00:44:39;;;;;;;4.40;2.43;;;26.80;49.70;;;;;;5147391;27;20451;-42
2021/09/07 00:47:10;;;;;;;4.07;3.67;;;26.80;49.30;;;;;;5146359;27;20479;-43
2021/09/07 00:49:42;;;;;;;5.20;3.90;;;26.80;49.80;;;;;;5147940;27;20452;-42
2021/09/07 00:52:14;;;;;;;2.20;2.00;;;26.70;49.70;;;;;;5147436;27;20889;-42
2021/09/07 00:54:47;;;;;;;2.70;2.23;;;26.70;49.40;;;;;;5145992;27;20466;-42
2021/09/07 00:57:19;;;;;;;3.60;2.40;;;26.70;49.30;;;;;;5139116;27;20518;-42
2021/09/07 00:59:51;;;;;;;2.90;2.20;;;26.70;49.80;;;;;;5147334;27;20459;-42
2021/09/07 01:02:22;;;;;;;2.27;2.07;;;26.60;50.40;;;;;;5147874;27;20474;-42
2021/09/07 01:04:55;;;;;;;3.23;1.90;;;26.50;50.70;;;;;;5147323;27;20448;-42
2021/09/07 01:07:26;;;;;;;2.47;2.23;;;26.40;51.10;;;;;;5147763;27;20480;-42
2021/09/07 01:09:57;;;;;;;2.37;2.17;;;26.40;50.80;;;;;;5146828;27;20450;-43
2021/09/07 01:12:28;;;;;;;2.40;1.90;;;26.30;51.30;;;;;;5146957;27;20474;-41
2021/09/07 01:14:59;;;;;;;2.80;2.07;;;26.40;50.80;;;;;;5147144;27;20481;-41
2021/09/07 01:17:30;;;;;;;2.50;2.00;;;26.30;51.10;;;;;;5146953;27;20450;-42
2021/09/07 01:20:03;;;;;;;3.87;1.93;;;26.30;51.40;;;;;;5147460;27;20460;-43
2021/09/07 01:22:35;;;;;;;2.60;2.20;;;26.30;52.20;;;;;;5147000;27;20893;-43
2021/09/07 01:25:08;;;;;;;12.30;11.30;;;26.30;52.80;;;;;;5133102;27;20473;-41
2021/09/07 01:27:39;;;;;;;3.67;2.73;;;26.30;52.60;;;;;;5146610;27;20512;-43
2021/09/07 01:30:13;;;;;;;2.60;2.00;;;26.20;52.70;;;;;;5147053;27;20446;-42
2021/09/07 01:32:44;;;;;;;5.13;2.67;;;26.20;53.30;;;;;;5146875;27;20481;-42
2021/09/07 01:35:15;;;;;;;2.20;2.00;;;26.20;53.90;;;;;;5146613;27;20449;-42
2021/09/07 01:37:46;;;;;;;3.33;2.10;;;26.10;54.40;;;;;;5146989;27;20813;-41
2021/09/07 01:40:18;;;;;;;3.30;2.60;;;26.10;54.40;;;;;;5146752;27;20453;-42
2021/09/07 01:42:49;;;;;;;2.30;2.07;;;26.00;55.00;;;;;;5146197;27;20444;-42
2021/09/07 01:45:20;;;;;;;2.73;2.10;;;26.00;54.10;;;;;;5146698;27;20446;-41
2021/09/07 01:47:53;;;;;;;4.50;2.33;;;25.90;54.60;;;;;;5146330;27;20492;-42
2021/09/07 01:50:24;;;;;;;2.23;2.03;;;25.80;54.60;;;;;;5146761;27;20421;-42
2021/09/07 01:52:55;;;;;;;2.73;2.10;;;25.80;54.70;;;;;;5146289;27;20442;-42
2021/09/07 01:55:28;;;;;;;3.10;2.30;;;25.70;55.10;;;;;;5145957;27;20452;-42
2021/09/07 01:57:58;;;;;;;3.50;3.20;;;25.70;54.60;;;;;;5146440;27;20506;-42
2021/09/07 02:00:30;;;;;;;2.70;2.50;;;25.70;54.80;;;;;;5146481;27;20486;-42
2021/09/07 02:03:01;;;;;;;2.87;1.93;;;25.70;54.90;;;;;;5146543;27;20527;-42
2021/09/07 02:05:32;;;;;;;2.30;2.10;;;25.70;54.80;;;;;;5146098;27;20456;-42
2021/09/07 02:08:03;;;;;;;2.17;2.03;;;25.70;54.90;;;;;;5146092;27;20484;-42
2021/09/07 02:10:36;;;;;;;3.40;2.27;;;25.70;54.90;;;;;;5145942;27;20450;-42
2021/09/07 02:13:07;;;;;;;5.23;4.73;;;25.70;54.90;;;;;;5145958;27;20835;-42
2021/09/07 02:15:38;;;;;;;2.27;2.07;;;25.70;55.10;;;;;;5146108;27;20904;-42
2021/09/07 02:18:09;;;;;;;2.90;2.30;;;25.60;55.50;;;;;;5145197;27;20456;-42
2021/09/07 02:20:40;;;;;;;3.70;2.20;;;25.50;55.70;;;;;;5145863;27;20461;-41
2021/09/07 02:23:11;;;;;;;2.30;2.03;;;25.50;55.90;;;;;;5145533;27;20467;-42
2021/09/07 02:25:44;;;;;;;2.27;2.00;;;25.30;56.20;;;;;;5145358;27;20433;-42
2021/09/07 02:28:15;;;;;;;3.20;2.10;;;25.20;56.60;;;;;;5145138;27;20504;-42
2021/09/07 02:30:47;;;;;;;2.73;2.30;;;25.10;56.80;;;;;;5142102;27;20466;-43
2021/09/07 02:33:18;;;;;;;2.53;2.00;;;25.10;56.80;;;;;;5140240;27;20457;-42
2021/09/07 02:35:49;;;;;;;2.40;2.00;;;25.00;57.30;;;;;;5144459;27;20445;-42
2021/09/07 02:38:20;;;;;;;2.70;2.10;;;24.90;58.20;;;;;;5144803;27;20441;-42
2021/09/07 02:40:57;;;;;;;1.90;1.80;;;24.80;57.80;;;;;;5145052;27;20449;-42
2021/09/07 02:43:29;;;;;;;2.87;2.57;;;24.80;58.30;;;;;;5145004;27;20468;-42
2021/09/07 02:45:59;;;;;;;2.27;2.07;;;24.70;58.40;;;;;;5145366;27;20444;-42
2021/09/07 02:48:31;;;;;;;2.40;2.17;;;24.60;58.70;;;;;;5144982;27;20536;-42
2021/09/07 02:51:01;;;;;;;2.57;2.00;;;24.40;59.20;;;;;;5145438;27;20472;-42
2021/09/07 02:53:33;;;;;;;3.57;2.50;;;24.40;59.20;;;;;;5144950;27;20437;-42
2021/09/07 02:56:05;;;;;;;2.27;2.00;;;24.30;59.20;;;;;;5138897;27;20449;-42
2021/09/07 02:58:36;;;;;;;2.53;2.33;;;24.20;59.90;;;;;;5124569;28;20446;-42
2021/09/07 03:01:07;;;;;;;8.40;2.50;;;24.10;60.70;;;;;;5139668;27;20445;-42
2021/09/07 03:03:39;;;;;;;3.47;2.27;;;23.90;63.70;;;;;;5145128;27;20456;-42
2021/09/07 03:06:10;;;;;;;2.10;1.63;;;23.70;63.50;;;;;;5145448;27;20551;-41
2021/09/07 03:08:41;;;;;;;4.23;2.33;;;23.60;65.30;;;;;;5144482;27;20805;-42
2021/09/07 03:11:14;;;;;;;2.77;1.90;;;23.60;65.20;;;;;;5144025;27;20551;-43
2021/09/07 03:13:45;;;;;;;3.20;2.33;;;23.40;66.90;;;;;;5144501;27;20445;-42
2021/09/07 03:16:16;;;;;;;3.20;2.40;;;23.40;66.90;;;;;;5143720;27;20448;-41
2021/09/07 03:18:47;;;;;;;3.23;2.93;;;23.30;68.10;;;;;;5144503;27;20437;-41
2021/09/07 03:21:18;;;;;;;4.00;2.30;;;23.10;69.00;;;;;;5144917;27;20440;-42
2021/09/07 03:23:50;;;;;;;2.43;2.23;;;23.00;69.90;;;;;;5143994;27;20437;-42
2021/09/07 03:26:22;;;;;;;3.00;2.80;;;22.90;69.70;;;;;;5144392;27;20440;-42
2021/09/07 03:28:53;;;;;;;3.17;2.80;;;22.90;69.60;;;;;;5143934;27;20508;-41
2021/09/07 03:31:25;;;;;;;2.90;2.70;;;22.80;71.00;;;;;;5144107;27;20472;-42
2021/09/07 03:33:56;;;;;;;3.10;2.80;;;22.60;71.50;;;;;;5144057;27;20923;-42
2021/09/07 03:36:27;;;;;;;3.00;2.80;;;22.50;71.80;;;;;;5144097;27;20437;-42
2021/09/07 03:38:58;;;;;;;3.13;2.83;;;22.40;71.50;;;;;;5142837;27;20484;-42
2021/09/07 03:41:31;;;;;;;5.40;3.07;;;22.40;73.20;;;;;;5144470;27;20459;-42
2021/09/07 03:44:02;;;;;;;3.67;3.07;;;22.40;73.00;;;;;;5143934;27;20452;-42
2021/09/07 03:46:33;;;;;;;3.60;3.10;;;22.30;73.00;;;;;;5143565;27;20427;-42
2021/09/07 03:49:04;;;;;;;3.33;3.00;;;22.30;73.50;;;;;;5143661;27;20492;-41
2021/09/07 03:51:35;;;;;;;4.27;2.97;;;22.30;74.10;;;;;;5144422;27;20451;-41
2021/09/07 03:54:06;;;;;;;3.03;2.70;;;22.20;74.30;;;;;;5142783;27;20453;-41
2021/09/07 03:56:39;;;;;;;3.00;2.80;;;22.20;75.00;;;;;;5143770;27;20459;-42
2021/09/07 03:59:10;;;;;;;3.50;3.07;;;22.20;75.10;;;;;;5143218;27;20955;-42
2021/09/07 04:01:41;;;;;;;2.90;2.60;;;22.10;76.00;;;;;;5143584;27;20445;-42
2021/09/07 04:04:12;;;;;;;3.67;3.20;;;22.00;76.60;;;;;;5143187;27;20425;-42
2021/09/07 04:06:43;;;;;;;3.97;3.00;;;21.90;77.10;;;;;;5143796;27;20440;-42
2021/09/07 04:09:14;;;;;;;4.10;2.70;;;21.90;78.10;;;;;;5143182;27;20549;-41
2021/09/07 04:11:47;;;;;;;3.10;2.80;;;21.90;79.00;;;;;;5144066;27;20484;-42
2021/09/07 04:14:18;;;;;;;3.90;3.00;;;21.80;79.30;;;;;;5143631;27;20444;-42
2021/09/07 04:16:49;;;;;;;4.00;3.10;;;21.70;80.40;;;;;;5143808;28;20480;-42
2021/09/07 04:19:20;;;;;;;3.40;2.90;;;21.60;81.30;;;;;;5143504;27;20448;-42
2021/09/07 04:21:51;;;;;;;3.40;3.10;;;21.60;81.60;;;;;;5144622;28;20415;-42
2021/09/07 04:24:22;;;;;;;3.17;2.90;;;21.50;82.10;;;;;;5142989;27;20494;-41
2021/09/07 04:26:55;;;;;;;3.30;2.83;;;21.50;83.00;;;;;;5143371;28;20441;-43
2021/09/07 04:29:26;;;;;;;3.60;3.30;;;21.50;83.20;;;;;;5141750;28;20488;-41
2021/09/07 04:31:57;;;;;;;3.57;2.70;;;21.50;83.70;;;;;;5143717;27;20476;-41
2021/09/07 04:34:29;;;;;;;3.80;3.40;;;21.50;84.10;;;;;;5143454;27;20444;-42
2021/09/07 04:37:00;;;;;;;4.07;2.93;;;21.60;84.30;;;;;;5143692;27;20440;-41
2021/09/07 04:39:31;;;;;;;3.40;3.20;;;21.50;84.80;;;;;;5143032;27;20460;-42
2021/09/07 04:42:03;;;;;;;3.20;2.90;;;21.50;85.60;;;;;;5139673;28;20459;-42
2021/09/07 04:44:35;;;;;;;3.30;3.00;;;21.50;85.70;;;;;;5142953;28;20453;-42
2021/09/07 04:47:06;;;;;;;3.87;2.60;;;21.40;86.20;;;;;;5143543;27;20449;-42
2021/09/07 04:49:37;;;;;;;2.77;2.53;;;21.40;86.40;;;;;;5143779;27;20488;-42
2021/09/07 04:52:09;;;;;;;4.60;2.90;;;21.40;86.50;;;;;;5144103;27;20438;-42
2021/09/07 04:54:40;;;;;;;3.23;2.90;;;21.30;87.20;;;;;;5142625;28;20444;-42
2021/09/07 04:57:12;;;;;;;3.77;2.80;;;21.30;88.20;;;;;;5143662;28;20563;-42
2021/09/07 04:59:44;;;;;;;3.10;2.80;;;21.30;88.40;;;;;;5143407;27;20448;-42
2021/09/07 05:02:14;;;;;;;4.57;3.20;;;21.30;88.50;;;;;;5143512;28;20449;-42
2021/09/07 05:04:46;;;;;;;3.17;2.67;;;21.30;89.50;;;;;;5144052;27;20400;-42
2021/09/07 05:07:17;;;;;;;5.57;3.03;;;21.20;89.50;;;;;;5143631;28;20441;-41
2021/09/07 05:09:48;;;;;;;3.93;3.30;;;21.10;90.00;;;;;;5141806;28;20575;-43
2021/09/07 05:12:20;;;;;;;3.80;2.93;;;21.10;90.20;;;;;;5143361;27;20491;-41
2021/09/07 05:14:51;;;;;;;3.27;3.07;;;21.10;90.40;;;;;;5143351;27;21022;-43
2021/09/07 05:17:22;;;;;;;3.50;2.80;;;21.00;90.60;;;;;;5145735;27;20548;-41
2021/09/07 05:19:53;;;;;;;6.13;3.27;;;21.00;90.90;;;;;;5146552;27;20449;-41
2021/09/07 05:22:24;;;;;;;4.10;2.83;;;21.00;90.90;;;;;;5147218;27;20834;-41
2021/09/07 05:24:55;;;;;;;2.93;2.73;;;20.90;91.10;;;;;;5146043;27;20462;-42
2021/09/07 05:27:28;;;;;;;2.73;2.53;;;20.90;91.60;;;;;;5146893;27;20423;-41
2021/09/07 05:29:59;;;;;;;3.97;2.80;;;20.80;91.70;;;;;;5147009;27;20488;-41
2021/09/07 05:32:30;;;;;;;3.33;2.93;;;20.70;92.20;;;;;;5146821;27;21017;-44
2021/09/07 05:35:01;;;;;;;3.23;2.70;;;20.60;92.50;;;;;;5146897;27;20429;-41
2021/09/07 05:37:37;;;;;;;3.00;2.50;;;20.60;92.70;;;;;;5147182;27;20441;-42
2021/09/07 05:40:09;;;;;;;3.10;2.90;;;20.60;93.00;;;;;;5146153;27;20471;-42
2021/09/07 05:42:43;;;;;;;4.50;3.10;;;20.60;93.10;;;;;;5146830;27;20441;-41
2021/09/07 05:45:15;;;;;;;2.80;2.47;;;20.50;93.60;;;;;;5134817;27;20525;-41
2021/09/07 05:47:46;;;;;;;3.20;2.80;;;20.40;93.80;;;;;;5143667;27;20437;-42
2021/09/07 05:50:18;;;;;;;2.90;2.30;;;20.40;94.00;;;;;;5146278;27;20468;-41
2021/09/07 05:52:49;;;;;;;3.23;2.77;;;20.50;94.00;;;;;;5146049;27;20472;-42
2021/09/07 05:55:20;;;;;;;3.00;2.80;;;20.40;94.40;;;;;;5145364;27;20419;-41
2021/09/07 05:57:54;;;;;;;2.70;2.50;;;20.40;94.70;;;;;;5144670;27;20456;-42
2021/09/07 06:00:25;;;;;;;4.70;2.80;;;20.30;95.10;;;;;;5146044;27;20449;-42
2021/09/07 06:02:57;;;;;;;4.43;2.83;;;20.20;95.40;;;;;;5132355;27;20448;-42
2021/09/07 06:05:29;;;;;;;2.40;2.20;;;20.20;96.30;;;;;;5147028;27;20433;-42
2021/09/07 06:08:00;;;;;;;2.93;2.37;;;20.20;96.30;;;;;;5145808;27;20511;-42
2021/09/07 06:10:31;;;;;;;3.20;2.90;;;20.10;96.70;;;;;;5145852;27;20474;-42
2021/09/07 06:13:06;;;;;;;4.10;2.80;;;20.00;96.90;;;;;;5145903;27;20431;-42
2021/09/07 06:15:36;;;;;;;3.43;2.60;;;19.90;97.30;;;;;;5145248;27;20952;-42
2021/09/07 06:18:07;;;;;;;3.57;2.80;;;19.80;97.90;;;;;;5145619;27;20455;-41
2021/09/07 06:20:38;;;;;;;3.43;2.90;;;19.70;98.40;;;;;;5146159;27;20437;-42
2021/09/07 06:23:09;;;;;;;3.50;2.70;;;19.70;98.80;;;;;;5145868;27;20441;-41
2021/09/07 06:25:40;;;;;;;3.70;2.73;;;19.60;99.30;;;;;;5145708;27;20481;-41
2021/09/07 06:28:13;;;;;;;3.80;2.83;;;19.50;99.40;;;;;;5144562;27;20435;-41
2021/09/07 06:30:44;;;;;;;4.30;2.90;;;19.50;99.90;;;;;;5145938;27;20424;-42
2021/09/07 06:33:15;;;;;;;3.50;3.20;;;19.40;99.90;;;;;;5104813;28;20413;-41
2021/09/07 06:35:47;;;;;;;3.00;2.57;;;19.30;99.90;;;;;;5105281;28;20485;-41
2021/09/07 06:38:18;;;;;;;2.90;2.57;;;19.30;99.90;;;;;;5104141;28;20508;-41
2021/09/07 06:40:49;;;;;;;3.47;3.07;;;19.20;99.90;;;;;;5084045;28;20464;-41
2021/09/07 06:43:22;;;;;;;3.27;2.97;;;19.20;99.90;;;;;;5103608;28;20450;-41
2021/09/07 06:45:53;;;;;;;3.33;2.70;;;19.10;99.90;;;;;;5103991;28;20479;-41
2021/09/07 06:48:24;;;;;;;2.87;2.67;;;19.10;99.90;;;;;;5104007;28;20439;-42
2021/09/07 06:50:55;;;;;;;3.10;2.80;;;19.00;99.90;;;;;;5103951;28;20443;-41
2021/09/07 06:53:26;;;;;;;3.00;2.30;;;18.90;99.90;;;;;;5102108;28;20417;-41
2021/09/07 06:55:57;;;;;;;3.27;2.97;;;18.90;99.90;;;;;;5103291;28;20527;-42
2021/09/07 06:58:29;;;;;;;2.87;2.53;;;18.80;99.90;;;;;;5103309;28;20447;-42
2021/09/07 07:01:00;;;;;;;2.43;2.23;;;18.80;99.90;;;;;;5103809;28;20750;-42
2021/09/07 07:03:33;;;;;;;3.90;3.03;;;18.70;99.90;;;;;;5104068;28;20443;-41
2021/09/07 07:06:04;;;;;;;3.17;2.87;;;18.70;99.90;;;;;;5104124;28;20414;-41
2021/09/07 07:08:35;;;;;;;3.87;2.83;;;18.70;99.90;;;;;;5103270;28;20499;-41
2021/09/07 07:11:06;;;;;;;3.00;2.30;;;18.70;99.90;;;;;;5100343;28;20777;-41
2021/09/07 07:13:39;;;;;;;3.77;2.83;;;18.80;99.90;;;;;;5103506;28;20428;-41
2021/09/07 07:16:10;;;;;;;3.73;2.70;;;18.80;99.90;;;;;;5103641;28;20447;-41
2021/09/07 07:18:41;;;;;;;5.60;3.20;;;18.70;99.90;;;;;;5103486;28;20413;-41
2021/09/07 07:21:12;;;;;;;3.50;2.80;;;18.60;99.90;;;;;;5102711;28;20450;-41
2021/09/07 07:23:43;;;;;;;3.10;2.83;;;18.60;99.90;;;;;;5103372;28;20426;-41
2021/09/07 07:26:14;;;;;;;3.20;2.90;;;18.50;99.90;;;;;;5083329;28;20475;-41
2021/09/07 07:28:46;;;;;;;3.97;2.70;;;18.40;99.90;;;;;;5096585;28;20480;-41
2021/09/07 07:31:18;;;;;;;2.90;2.70;;;18.40;99.90;;;;;;5111868;27;20477;-42
2021/09/07 07:33:49;;;;;;;3.63;3.00;;;18.40;99.90;;;;;;5144706;27;20522;-41
2021/09/07 07:36:20;;;;;;;3.73;2.77;;;18.30;99.90;;;;;;5143899;27;20419;-41
2021/09/07 07:38:51;;;;;;;3.40;2.40;;;18.40;99.90;;;;;;5143227;27;20448;-41
2021/09/07 07:41:22;;;;;;;4.13;2.90;;;18.40;99.90;;;;;;5123784;28;20957;-42
2021/09/07 07:43:54;;;;;;;3.63;2.80;;;18.40;99.90;;;;;;5123279;28;20533;-41
2021/09/07 07:46:25;;;;;;;3.40;2.90;;;18.40;99.90;;;;;;5124283;28;20445;-41
2021/09/07 07:48:56;;;;;;;2.87;2.63;;;18.30;99.90;;;;;;5141452;27;20415;-41
2021/09/07 07:51:27;;;;;;;4.03;2.60;;;18.30;99.90;;;;;;5144447;27;20445;-42
2021/09/07 07:53:58;;;;;;;3.57;2.60;;;18.20;99.90;;;;;;5143406;27;20519;-41
2021/09/07 07:56:29;;;;;;;3.50;2.70;;;18.20;99.90;;;;;;5144245;27;20465;-42
2021/09/07 07:59:02;;;;;;;2.67;2.40;;;18.10;99.90;;;;;;5143896;27;20444;-41
2021/09/07 08:01:33;;;;;;;2.87;2.50;;;18.10;99.90;;;;;;5143647;27;20446;-42
2021/09/07 08:04:05;;;;;;;3.27;2.50;;;18.10;99.90;;;;;;5144286;27;20419;-42
2021/09/07 08:06:37;;;;;;;3.60;2.37;;;18.10;99.90;;;;;;5144218;27;20420;-41
2021/09/07 08:09:10;;;;;;;3.57;3.03;;;18.00;99.90;;;;;;5143404;27;20444;-42
2021/09/07 08:11:41;;;;;;;4.53;2.77;;;18.00;99.90;;;;;;5141460;27;20444;-41
2021/09/07 08:14:15;;;;;;;4.70;2.63;;;18.00;99.90;;;;;;5143656;27;20444;-41
2021/09/07 08:16:45;;;;;;;4.23;3.07;;;18.00;99.90;;;;;;5143944;27;20441;-42
2021/09/07 08:19:16;;;;;;;2.60;2.20;;;18.00;99.90;;;;;;5142219;28;20439;-41
2021/09/07 08:21:47;;;;;;;3.40;2.70;;;18.00;99.90;;;;;;5143493;28;20464;-42
2021/09/07 08:24:18;;;;;;;2.63;2.43;;;18.00;99.90;;;;;;5143196;28;20491;-42
2021/09/07 08:26:49;;;;;;;2.90;2.63;;;17.90;99.90;;;;;;5144406;28;20437;-42
2021/09/07 08:29:22;;;;;;;4.97;2.97;;;17.70;99.90;;;;;;5142955;28;20437;-41
2021/09/07 08:31:53;;;;;;;3.77;2.60;;;17.70;99.90;;;;;;5143448;28;20542;-41
2021/09/07 08:34:25;;;;;;;2.90;2.63;;;17.70;99.90;;;;;;5144043;28;20437;-41
2021/09/07 08:36:56;;;;;;;3.47;2.43;;;17.60;99.90;;;;;;5144055;28;20556;-41
2021/09/07 08:39:27;;;;;;;4.07;2.90;;;17.60;99.90;;;;;;5142896;27;20445;-41
2021/09/07 08:41:58;;;;;;;2.57;2.37;;;17.60;99.90;;;;;;5143602;27;20423;-41
2021/09/07 08:44:30;;;;;;;3.13;2.67;;;17.50;99.90;;;;;;5143466;27;20448;-41
2021/09/07 08:47:01;;;;;;;2.80;2.60;;;17.50;99.90;;;;;;5143575;27;20466;-41
2021/09/07 08:49:32;;;;;;;3.20;2.60;;;17.40;99.90;;;;;;5123812;28;20538;-41
2021/09/07 08:52:03;;;;;;;3.37;3.07;;;17.30;99.90;;;;;;5125489;28;20451;-41
2021/09/07 08:54:34;;;;;;;5.63;2.70;;;17.30;99.90;;;;;;5141697;27;20419;-42
2021/09/07 08:57:05;;;;;;;3.50;2.80;;;17.10;99.90;;;;;;5143903;27;20903;-42
2021/09/07 08:59:38;;;;;;;4.23;3.77;;;17.10;99.90;;;;;;5147335;27;20457;-42
2021/09/07 09:02:17;;;;;;;4.93;3.27;;;17.00;99.90;;;;;;5147718;27;20543;-42
2021/09/07 09:04:49;;;;;;;5.77;3.30;;;17.00;99.90;;;;;;5144570;27;20436;-41
2021/09/07 09:07:22;;;;;;;4.17;3.00;;;16.90;99.90;;;;;;5147686;27;20475;-41
2021/09/07 09:09:53;;;;;;;3.53;3.17;;;16.90;99.90;;;;;;5146827;27;20487;-42
2021/09/07 09:12:31;;;;;;;4.10;3.80;;;16.90;99.90;;;;;;5146750;27;20448;-42
2021/09/07 09:15:12;;;;;;;4.13;3.57;;;16.80;99.90;;;;;;5147662;27;20433;-41
2021/09/07 09:17:43;;;;;;;5.97;3.20;;;16.70;99.90;;;;;;5147191;27;20436;-41
2021/09/07 09:20:16;;;;;;;4.10;3.23;;;16.70;99.90;;;;;;5147574;27;20462;-41
2021/09/07 09:22:50;;;;;;;5.80;2.87;;;16.70;99.90;;;;;;5146878;27;20436;-42
2021/09/07 09:25:33;;;;;;;3.90;3.10;;;16.60;99.90;;;;;;5147298;27;20419;-42
2021/09/07 09:28:18;;;;;;;3.10;2.90;;;16.70;99.90;;;;;;5146875;27;20518;-41
2021/09/07 09:30:55;;;;;;;2.93;2.73;;;16.60;99.90;;;;;;5146867;27;20480;-42
2021/09/07 09:33:28;;;;;;;4.10;3.73;;;16.50;99.90;;;;;;5145997;27;20464;-42
2021/09/07 09:36:02;;;;;;;4.10;3.47;;;16.40;99.90;;;;;;5147456;27;20895;-42
2021/09/07 09:38:35;;;;;;;3.40;3.00;;;16.40;99.90;;;;;;5146487;27;20996;-42
2021/09/07 09:41:08;;;;;;;2.73;2.53;;;16.40;99.90;;;;;;5141120;27;21016;-42
2021/09/07 09:43:43;;;;;;;3.40;2.90;;;16.40;99.90;;;;;;5146763;27;20478;-42
2021/09/07 09:46:24;;;;;;;3.70;3.40;;;16.40;99.90;;;;;;5147004;27;20440;-41
2021/09/07 09:49:12;;;;;;;3.40;3.10;;;16.30;99.90;;;;;;5146350;27;20474;-42
2021/09/07 09:51:44;;;;;;;3.73;3.43;;;16.30;99.90;;;;;;5146854;27;20463;-41
2021/09/07 09:54:26;;;;;;;5.73;3.70;;;16.20;99.90;;;;;;5145707;27;20444;-42
2021/09/07 09:56:59;;;;;;;5.80;3.50;;;16.30;99.90;;;;;;5125933;27;20442;-41
2021/09/07 09:59:30;;;;;;;6.10;3.90;;;16.20;99.90;;;;;;5140502;27;20481;-42
2021/09/07 10:02:03;;;;;;;6.40;3.57;;;16.20;99.90;;;;;;5146109;27;20444;-42
2021/09/07 10:04:35;;;;;;;4.30;3.50;;;16.30;99.90;;;;;;5145466;27;20514;-42
2021/09/07 10:07:08;;;;;;;3.40;3.10;;;16.30;99.90;;;;;;5146957;27;20456;-42
2021/09/07 10:09:41;;;;;;;3.10;2.80;;;16.20;99.90;;;;;;5144917;27;20461;-43
2021/09/07 10:12:19;;;;;;;6.03;3.23;;;16.20;99.90;;;;;;5145991;27;20470;-42
2021/09/07 10:14:56;;;;;;;4.93;3.70;;;16.20;99.90;;;;;;5146573;27;20425;-42
2021/09/07 10:17:37;;;;;;;3.80;3.40;;;16.20;99.90;;;;;;5145477;27;20436;-42
2021/09/07 10:20:17;;;;;;;3.60;2.90;;;16.20;99.90;;;;;;5145228;27;20449;-41
2021/09/07 10:25:54;;;;;;;3.87;3.50;;;16.10;99.90;;;;;;5145362;27;20449;-41
2021/09/07 10:28:36;;;;;;;3.43;3.07;;;16.00;99.90;;;;;;5145612;27;20452;-41
2021/09/07 10:31:10;;;;;;;3.90;3.50;;;16.00;99.90;;;;;;5145659;27;20459;-41
2021/09/07 10:33:44;;;;;;;4.00;3.60;;;16.00;99.90;;;;;;5145463;27;20437;-41
2021/09/07 10:36:18;;;;;;;4.00;3.00;;;15.90;99.90;;;;;;5146603;27;20460;-41
2021/09/07 10:39:02;;;;;;;3.50;2.90;;;15.90;99.90;;;;;;5135421;27;20502;-41
2021/09/07 10:41:47;;;;;;;4.03;3.40;;;15.80;99.90;;;;;;5145623;27;20445;-42
2021/09/07 10:44:28;;;;;;;4.17;3.07;;;15.80;99.90;;;;;;5144820;27;20459;-42
2021/09/07 10:47:10;;;;;;;3.90;3.57;;;15.70;99.90;;;;;;5145637;27;20440;-42
2021/09/07 10:49:51;;;;;;;4.20;3.60;;;15.60;99.90;;;;;;5141660;27;20456;-41
2021/09/07 10:52:35;;;;;;;4.17;3.77;;;15.60;99.90;;;;;;5145201;27;20512;-41
2021/09/07 10:55:21;;;;;;;4.70;3.70;;;15.70;99.90;;;;;;5145070;27;20451;-41
2021/09/07 10:58:02;;;;;;;5.33;4.00;;;15.70;99.90;;;;;;5144972;27;20445;-42
2021/09/07 11:00:40;;;;;;;5.03;3.97;;;15.70;99.90;;;;;;5146044;27;20429;-42
2021/09/07 11:03:13;;;;;;;4.30;3.50;;;15.70;99.90;;;;;;5144891;27;20444;-42
2021/09/07 11:05:49;;;;;;;4.07;3.67;;;15.70;99.90;;;;;;5145637;27;20523;-42
2021/09/07 11:08:38;;;;;;;3.80;3.50;;;15.70;99.90;;;;;;5144526;27;20855;-42
2021/09/07 11:11:29;;;;;;;7.03;4.83;;;15.70;99.90;;;;;;5144128;27;20497;-42
2021/09/07 11:14:11;;;;;;;4.07;3.27;;;15.70;99.90;;;;;;5143882;27;20441;-41
2021/09/07 11:16:42;;;;;;;5.37;3.40;;;15.60;99.90;;;;;;5144518;27;20471;-41
2021/09/07 11:19:13;;;;;;;6.03;3.97;;;15.70;99.90;;;;;;5144112;27;20461;-41
2021/09/07 11:21:45;;;;;;;4.10;3.70;;;15.70;99.90;;;;;;5145336;27;20441;-41
2021/09/07 11:24:21;;;;;;;4.03;3.73;;;15.70;99.90;;;;;;5143599;27;20457;-42
2021/09/07 11:27:07;;;;;;;4.80;4.30;;;15.60;99.90;;;;;;5145163;27;20523;-42
2021/09/07 11:29:38;;;;;;;3.83;3.53;;;15.60;99.90;;;;;;5144092;27;20475;-42
2021/09/07 11:32:23;;;;;;;4.07;3.67;;;15.50;99.90;;;;;;5144529;27;20492;-42
2021/09/07 11:35:15;;;;;;;3.93;3.53;;;15.40;99.90;;;;;;5144442;27;20509;-42
2021/09/07 11:37:47;;;;;;;5.37;4.03;;;15.40;99.90;;;;;;5139506;27;20440;-42
2021/09/07 11:40:19;;;;;;;7.53;4.70;;;15.50;99.90;;;;;;5132903;27;20490;-42
2021/09/07 11:42:51;;;;;;;4.90;3.77;;;15.50;99.90;;;;;;5143947;27;20448;-42
2021/09/07 11:45:25;;;;;;;4.83;4.17;;;15.40;99.90;;;;;;5144622;27;20452;-41
2021/09/07 11:47:56;;;;;;;4.33;3.93;;;15.40;99.90;;;;;;5143401;27;20445;-42
2021/09/07 11:50:29;;;;;;;5.33;4.30;;;15.40;99.90;;;;;;5144068;27;20448;-42
2021/09/07 11:53:04;;;;;;;5.23;3.40;;;15.40;99.90;;;;;;5143423;27;20484;-42
2021/09/07 11:55:40;;;;;;;4.50;3.67;;;15.40;99.90;;;;;;5142580;27;20436;-42
2021/09/07 11:58:12;;;;;;;7.40;4.27;;;15.40;99.90;;;;;;5127256;27;20443;-42
2021/09/07 12:00:43;;;;;;;4.83;3.90;;;15.30;99.90;;;;;;5144067;27;20449;-41
2021/09/07 12:03:15;;;;;;;4.87;4.07;;;15.30;99.90;;;;;;5143385;27;20449;-42
2021/09/07 12:05:53;;;;;;;4.57;3.80;;;15.40;99.90;;;;;;5144071;27;20467;-42
2021/09/07 12:08:35;;;;;;;5.70;4.63;;;15.30;99.90;;;;;;5143821;27;20481;-42
2021/09/07 12:11:07;;;;;;;4.60;4.20;;;15.30;99.90;;;;;;5143490;27;20437;-42
2021/09/07 12:13:38;;;;;;;5.27;4.20;;;15.20;99.90;;;;;;5143358;27;20445;-42
2021/09/07 12:16:09;;;;;;;6.50;4.57;;;15.20;99.90;;;;;;5143946;27;20472;-42
2021/09/07 12:18:44;;;;;;;3.87;3.43;;;15.10;99.90;;;;;;5143030;27;20444;-42
2021/09/07 12:21:18;;;;;;;3.93;3.60;;;15.10;99.90;;;;;;5143425;27;20448;-42
2021/09/07 12:23:52;;;;;;;5.30;3.97;;;15.10;99.90;;;;;;5143148;27;20457;-42
2021/09/07 12:26:38;;;;;;;5.03;4.07;;;15.00;99.90;;;;;;5145185;27;20497;-42
2021/09/07 12:29:19;;;;;;;5.37;4.43;;;15.00;99.90;;;;;;5147516;27;20475;-42
2021/09/07 12:32:02;;;;;;;5.10;4.57;;;15.00;99.90;;;;;;5148336;27;20518;-43
2021/09/07 12:34:33;;;;;;;5.27;4.77;;;14.90;99.90;;;;;;5148204;27;20776;-42
2021/09/07 12:37:06;;;;;;;7.53;3.93;;;14.90;99.90;;;;;;5147938;27;20451;-42
2021/09/07 12:39:39;;;;;;;7.97;4.90;;;14.90;99.90;;;;;;5147245;27;20830;-42
2021/09/07 12:42:10;;;;;;;4.90;4.17;;;14.90;99.90;;;;;;5147672;27;20483;-42
2021/09/07 12:44:41;;;;;;;4.97;4.40;;;14.80;99.90;;;;;;5147604;27;20440;-42
2021/09/07 12:47:12;;;;;;;5.03;4.63;;;14.80;99.90;;;;;;5148191;27;20437;-41
2021/09/07 12:49:46;;;;;;;6.07;4.70;;;14.70;99.90;;;;;;5148320;27;20433;-41
2021/09/07 12:52:17;;;;;;;5.40;4.30;;;14.70;99.90;;;;;;5147570;27;20491;-41
2021/09/07 12:54:50;;;;;;;4.53;4.10;;;14.70;99.90;;;;;;5146121;27;20452;-41
2021/09/07 12:57:20;;;;;;;5.13;4.23;;;14.70;99.90;;;;;;5131170;27;20472;-43
2021/09/07 12:59:51;;;;;;;8.13;4.10;;;14.60;99.90;;;;;;5144201;27;20441;-42
2021/09/07 13:02:22;;;;;;;5.37;4.40;;;14.60;99.90;;;;;;5148052;27;20425;-42
2021/09/07 13:04:53;;;;;;;4.87;4.37;;;14.60;99.90;;;;;;5146962;27;20449;-41
2021/09/07 13:07:25;;;;;;;6.17;4.60;;;14.60;99.90;;;;;;5147254;27;20513;-42
2021/09/07 13:09:58;;;;;;;4.33;3.90;;;14.50;99.90;;;;;;5146657;27;20923;-41
2021/09/07 13:12:29;;;;;;;5.20;3.80;;;14.50;99.90;;;;;;5126435;28;20487;-42
2021/09/07 13:15:00;;;;;;;5.10;4.50;;;14.50;99.90;;;;;;5145124;27;20448;-42
2021/09/07 13:17:31;;;;;;;4.87;4.10;;;14.50;99.90;;;;;;5147162;27;20826;-43
2021/09/07 13:20:02;;;;;;;7.10;4.90;;;14.40;99.90;;;;;;5146911;27;20444;-43